sensor_id;sensor_type;location;lat;lon;timestamp;temperature;humidity
530;DHT22;251;48.704;9.210;2023-05-18T00:01:52;3.70;56.50
530;DHT22;251;48.704;9.210;2023-05-18T00:04:20;4.20;57.00
530;DHT22;251;48.704;9.210;2023-05-18T00:06:53;4.20;58.40
530;DHT22;251;48.704;9.210;2023-05-18T00:09:22;4.10;60.50
530;DHT22;251;48.704;9.210;2023-05-18T00:11:54;3.70;61.10
530;DHT22;251;48.704;9.210;2023-05-18T00:14:27;3.70;60.70
530;DHT22;251;48.704;9.210;2023-05-18T00:16:56;4.20;60.30
530;DHT22;251;48.704;9.210;2023-05-18T00:19:27;4.00;60.70
530;DHT22;251;48.704;9.210;2023-05-18T00:21:55;3.90;61.10
530;DHT22;251;48.704;9.210;2023-05-18T00:24:29;4.00;60.20
530;DHT22;251;48.704;9.210;2023-05-18T00:26:59;3.90;61.70
530;DHT22;251;48.704;9.210;2023-05-18T00:29:27;3.80;61.40
530;DHT22;251;48.704;9.210;2023-05-18T00:31:57;3.90;61.50
530;DHT22;251;48.704;9.210;2023-05-18T00:34:24;3.70;60.10
530;DHT22;251;48.704;9.210;2023-05-18T00:36:52;3.90;59.20
530;DHT22;251;48.704;9.210;2023-05-18T00:39:20;3.60;59.50
530;DHT22;251;48.704;9.210;2023-05-18T00:41:47;3.50;58.20
530;DHT22;251;48.704;9.210;2023-05-18T00:44:16;3.60;59.50
530;DHT22;251;48.704;9.210;2023-05-18T00:46:43;3.60;60.00
530;DHT22;251;48.704;9.210;2023-05-18T00:49:11;3.50;59.70
530;DHT22;251;48.704;9.210;2023-05-18T00:51:39;3.40;59.90
530;DHT22;251;48.704;9.210;2023-05-18T00:54:07;3.50;60.90
530;DHT22;251;48.704;9.210;2023-05-18T00:56:36;3.10;61.40
530;DHT22;251;48.704;9.210;2023-05-18T00:59:07;3.40;61.20
530;DHT22;251;48.704;9.210;2023-05-18T01:01:38;3.40;62.90
530;DHT22;251;48.704;9.210;2023-05-18T01:04:08;3.10;63.00
530;DHT22;251;48.704;9.210;2023-05-18T01:06:39;3.10;62.80
530;DHT22;251;48.704;9.210;2023-05-18T01:09:08;3.10;64.30
530;DHT22;251;48.704;9.210;2023-05-18T01:11:54;3.10;65.10
530;DHT22;251;48.704;9.210;2023-05-18T01:14:30;3.20;64.00
530;DHT22;251;48.704;9.210;2023-05-18T01:17:11;3.10;63.30
530;DHT22;251;48.704;9.210;2023-05-18T01:20:02;3.10;63.30
530;DHT22;251;48.704;9.210;2023-05-18T01:22:42;3.00;63.40
530;DHT22;251;48.704;9.210;2023-05-18T01:25:20;3.20;63.90
530;DHT22;251;48.704;9.210;2023-05-18T01:27:50;3.20;65.10
530;DHT22;251;48.704;9.210;2023-05-18T01:30:22;3.10;65.10
530;DHT22;251;48.704;9.210;2023-05-18T01:32:49;3.20;66.70
530;DHT22;251;48.704;9.210;2023-05-18T01:35:16;3.40;67.50
530;DHT22;251;48.704;9.210;2023-05-18T01:37:43;3.20;67.10
530;DHT22;251;48.704;9.210;2023-05-18T01:40:10;3.40;68.40
530;DHT22;251;48.704;9.210;2023-05-18T01:42:42;3.30;67.20
530;DHT22;251;48.704;9.210;2023-05-18T01:45:16;3.60;65.20
530;DHT22;251;48.704;9.210;2023-05-18T01:47:47;3.30;63.20
530;DHT22;251;48.704;9.210;2023-05-18T01:50:18;3.20;63.80
530;DHT22;251;48.704;9.210;2023-05-18T01:52:52;3.40;62.90
530;DHT22;251;48.704;9.210;2023-05-18T01:55:19;3.40;63.80
530;DHT22;251;48.704;9.210;2023-05-18T01:57:48;3.10;63.60
530;DHT22;251;48.704;9.210;2023-05-18T02:00:18;3.20;64.00
530;DHT22;251;48.704;9.210;2023-05-18T02:02:46;3.10;65.40
530;DHT22;251;48.704;9.210;2023-05-18T02:05:15;3.10;66.40
530;DHT22;251;48.704;9.210;2023-05-18T02:07:42;3.10;66.00
530;DHT22;251;48.704;9.210;2023-05-18T02:10:12;2.80;65.70
530;DHT22;251;48.704;9.210;2023-05-18T02:12:39;2.80;65.50
530;DHT22;251;48.704;9.210;2023-05-18T02:15:07;2.80;66.00
530;DHT22;251;48.704;9.210;2023-05-18T02:17:36;2.80;66.50
530;DHT22;251;48.704;9.210;2023-05-18T02:20:04;2.80;68.20
530;DHT22;251;48.704;9.210;2023-05-18T02:22:32;2.80;67.90
530;DHT22;251;48.704;9.210;2023-05-18T02:24:59;2.60;68.10
530;DHT22;251;48.704;9.210;2023-05-18T02:27:26;2.70;69.50
530;DHT22;251;48.704;9.210;2023-05-18T02:29:53;2.60;69.50
530;DHT22;251;48.704;9.210;2023-05-18T02:32:22;2.70;69.50
530;DHT22;251;48.704;9.210;2023-05-18T02:34:52;2.60;71.00
530;DHT22;251;48.704;9.210;2023-05-18T02:37:19;2.60;71.30
530;DHT22;251;48.704;9.210;2023-05-18T02:39:47;2.60;71.40
530;DHT22;251;48.704;9.210;2023-05-18T02:42:14;2.60;71.80
530;DHT22;251;48.704;9.210;2023-05-18T02:44:41;2.40;71.00
530;DHT22;251;48.704;9.210;2023-05-18T02:47:10;2.20;71.20
530;DHT22;251;48.704;9.210;2023-05-18T02:49:37;2.50;71.20
530;DHT22;251;48.704;9.210;2023-05-18T02:52:06;2.30;72.60
530;DHT22;251;48.704;9.210;2023-05-18T02:54:33;2.30;73.30
530;DHT22;251;48.704;9.210;2023-05-18T02:57:01;2.40;74.80
530;DHT22;251;48.704;9.210;2023-05-18T02:59:39;2.50;74.50
530;DHT22;251;48.704;9.210;2023-05-18T03:02:06;2.30;75.30
530;DHT22;251;48.704;9.210;2023-05-18T03:04:33;2.30;75.40
530;DHT22;251;48.704;9.210;2023-05-18T03:07:02;2.40;74.10
530;DHT22;251;48.704;9.210;2023-05-18T03:09:30;2.50;73.40
530;DHT22;251;48.704;9.210;2023-05-18T03:11:57;2.20;73.60
530;DHT22;251;48.704;9.210;2023-05-18T03:14:24;2.20;73.10
530;DHT22;251;48.704;9.210;2023-05-18T03:16:53;2.30;73.50
530;DHT22;251;48.704;9.210;2023-05-18T03:19:22;2.20;74.80
530;DHT22;251;48.704;9.210;2023-05-18T03:21:51;2.10;75.10
530;DHT22;251;48.704;9.210;2023-05-18T03:24:18;2.10;75.50
530;DHT22;251;48.704;9.210;2023-05-18T03:26:49;2.20;74.60
530;DHT22;251;48.704;9.210;2023-05-18T03:29:19;2.10;75.00
530;DHT22;251;48.704;9.210;2023-05-18T03:31:47;2.30;73.30
530;DHT22;251;48.704;9.210;2023-05-18T03:34:14;2.10;73.90
530;DHT22;251;48.704;9.210;2023-05-18T03:36:41;1.90;75.20
530;DHT22;251;48.704;9.210;2023-05-18T03:39:12;1.90;76.00
530;DHT22;251;48.704;9.210;2023-05-18T03:41:39;1.90;77.50
530;DHT22;251;48.704;9.210;2023-05-18T03:44:07;2.10;78.80
530;DHT22;251;48.704;9.210;2023-05-18T03:46:34;1.90;77.10
530;DHT22;251;48.704;9.210;2023-05-18T03:49:01;2.00;77.80
530;DHT22;251;48.704;9.210;2023-05-18T03:51:35;1.80;79.00
530;DHT22;251;48.704;9.210;2023-05-18T03:54:03;1.80;78.10
530;DHT22;251;48.704;9.210;2023-05-18T03:56:30;2.00;79.40
530;DHT22;251;48.704;9.210;2023-05-18T03:58:57;1.90;80.20
530;DHT22;251;48.704;9.210;2023-05-18T04:01:26;2.20;81.00
530;DHT22;251;48.704;9.210;2023-05-18T04:03:55;2.00;81.00
530;DHT22;251;48.704;9.210;2023-05-18T04:06:23;2.10;81.50
530;DHT22;251;48.704;9.210;2023-05-18T04:08:51;2.10;82.50
530;DHT22;251;48.704;9.210;2023-05-18T04:11:18;2.20;83.20
530;DHT22;251;48.704;9.210;2023-05-18T04:13:46;2.10;81.50
530;DHT22;251;48.704;9.210;2023-05-18T04:16:14;2.20;80.30
530;DHT22;251;48.704;9.210;2023-05-18T04:18:42;2.40;80.50
530;DHT22;251;48.704;9.210;2023-05-18T04:21:09;2.10;80.40
530;DHT22;251;48.704;9.210;2023-05-18T04:23:36;2.00;80.00
530;DHT22;251;48.704;9.210;2023-05-18T04:26:05;2.40;81.50
530;DHT22;251;48.704;9.210;2023-05-18T04:28:33;2.30;79.80
530;DHT22;251;48.704;9.210;2023-05-18T04:31:02;2.30;77.90
530;DHT22;251;48.704;9.210;2023-05-18T04:33:28;2.40;77.60
530;DHT22;251;48.704;9.210;2023-05-18T04:35:57;2.50;78.40
530;DHT22;251;48.704;9.210;2023-05-18T04:38:29;2.70;77.90
530;DHT22;251;48.704;9.210;2023-05-18T04:40:57;2.60;77.40
530;DHT22;251;48.704;9.210;2023-05-18T04:43:25;2.90;78.90
530;DHT22;251;48.704;9.210;2023-05-18T04:45:53;2.80;78.40
530;DHT22;251;48.704;9.210;2023-05-18T04:48:19;2.90;79.70
530;DHT22;251;48.704;9.210;2023-05-18T04:50:47;2.90;80.60
530;DHT22;251;48.704;9.210;2023-05-18T04:53:16;3.10;79.90
530;DHT22;251;48.704;9.210;2023-05-18T04:55:43;3.10;80.20
530;DHT22;251;48.704;9.210;2023-05-18T04:58:11;3.40;80.60
530;DHT22;251;48.704;9.210;2023-05-18T05:00:38;3.40;79.80
530;DHT22;251;48.704;9.210;2023-05-18T05:03:04;3.40;81.20
530;DHT22;251;48.704;9.210;2023-05-18T05:05:32;3.90;80.10
530;DHT22;251;48.704;9.210;2023-05-18T05:07:59;4.00;78.50
530;DHT22;251;48.704;9.210;2023-05-18T05:10:27;3.80;76.60
530;DHT22;251;48.704;9.210;2023-05-18T05:12:54;4.10;75.70
530;DHT22;251;48.704;9.210;2023-05-18T05:15:21;4.20;74.30
530;DHT22;251;48.704;9.210;2023-05-18T05:17:49;4.50;74.80
530;DHT22;251;48.704;9.210;2023-05-18T05:20:17;4.60;73.90
530;DHT22;251;48.704;9.210;2023-05-18T05:22:44;4.90;73.30
530;DHT22;251;48.704;9.210;2023-05-18T05:25:14;5.10;70.80
530;DHT22;251;48.704;9.210;2023-05-18T05:27:42;4.90;67.40
530;DHT22;251;48.704;9.210;2023-05-18T05:30:10;5.40;62.10
530;DHT22;251;48.704;9.210;2023-05-18T05:32:38;5.60;60.40
530;DHT22;251;48.704;9.210;2023-05-18T05:35:06;5.60;55.60
530;DHT22;251;48.704;9.210;2023-05-18T05:37:34;6.10;52.80
530;DHT22;251;48.704;9.210;2023-05-18T05:40:01;6.00;52.30
530;DHT22;251;48.704;9.210;2023-05-18T05:42:33;6.50;50.90
530;DHT22;251;48.704;9.210;2023-05-18T05:45:04;6.30;46.80
530;DHT22;251;48.704;9.210;2023-05-18T05:47:37;6.60;46.10
530;DHT22;251;48.704;9.210;2023-05-18T05:50:04;6.70;43.40
530;DHT22;251;48.704;9.210;2023-05-18T05:52:32;7.20;37.70
530;DHT22;251;48.704;9.210;2023-05-18T05:54:59;7.10;40.30
530;DHT22;251;48.704;9.210;2023-05-18T05:57:27;7.10;36.50
530;DHT22;251;48.704;9.210;2023-05-18T05:59:53;7.50;34.70
530;DHT22;251;48.704;9.210;2023-05-18T06:02:22;7.40;30.80
530;DHT22;251;48.704;9.210;2023-05-18T06:04:49;7.80;31.60
530;DHT22;251;48.704;9.210;2023-05-18T06:07:16;7.60;30.20
530;DHT22;251;48.704;9.210;2023-05-18T06:09:43;7.80;29.70
530;DHT22;251;48.704;9.210;2023-05-18T06:12:09;7.80;28.70
530;DHT22;251;48.704;9.210;2023-05-18T06:14:37;7.90;29.50
530;DHT22;251;48.704;9.210;2023-05-18T06:17:04;8.30;30.30
530;DHT22;251;48.704;9.210;2023-05-18T06:19:33;7.90;27.80
530;DHT22;251;48.704;9.210;2023-05-18T06:22:01;8.30;28.10
530;DHT22;251;48.704;9.210;2023-05-18T06:24:32;8.30;28.10
530;DHT22;251;48.704;9.210;2023-05-18T06:27:17;8.70;27.30
530;DHT22;251;48.704;9.210;2023-05-18T06:29:51;8.80;25.80
530;DHT22;251;48.704;9.210;2023-05-18T06:32:39;8.70;25.20
530;DHT22;251;48.704;9.210;2023-05-18T06:35:08;8.60;24.70
530;DHT22;251;48.704;9.210;2023-05-18T06:37:35;8.70;24.70
530;DHT22;251;48.704;9.210;2023-05-18T06:40:03;9.20;23.70
530;DHT22;251;48.704;9.210;2023-05-18T06:42:32;9.00;23.60
530;DHT22;251;48.704;9.210;2023-05-18T06:45:11;9.20;23.80
530;DHT22;251;48.704;9.210;2023-05-18T06:47:48;9.10;22.60
530;DHT22;251;48.704;9.210;2023-05-18T06:50:17;9.30;23.10
530;DHT22;251;48.704;9.210;2023-05-18T06:52:43;9.30;22.40
530;DHT22;251;48.704;9.210;2023-05-18T06:55:10;9.30;22.30
530;DHT22;251;48.704;9.210;2023-05-18T06:57:38;9.30;22.30
530;DHT22;251;48.704;9.210;2023-05-18T07:00:06;9.50;22.00
530;DHT22;251;48.704;9.210;2023-05-18T07:02:33;9.60;21.60
530;DHT22;251;48.704;9.210;2023-05-18T07:05:00;9.60;22.30
530;DHT22;251;48.704;9.210;2023-05-18T07:07:31;9.90;22.20
530;DHT22;251;48.704;9.210;2023-05-18T07:09:58;9.90;21.20
530;DHT22;251;48.704;9.210;2023-05-18T07:12:25;10.10;21.00
530;DHT22;251;48.704;9.210;2023-05-18T07:14:53;10.00;20.50
530;DHT22;251;48.704;9.210;2023-05-18T07:17:20;9.90;20.60
530;DHT22;251;48.704;9.210;2023-05-18T07:19:46;10.10;20.20
530;DHT22;251;48.704;9.210;2023-05-18T07:22:13;10.30;18.70
530;DHT22;251;48.704;9.210;2023-05-18T07:24:41;10.20;19.20
530;DHT22;251;48.704;9.210;2023-05-18T07:27:08;10.50;18.80
530;DHT22;251;48.704;9.210;2023-05-18T07:29:35;10.60;18.40
530;DHT22;251;48.704;9.210;2023-05-18T07:32:03;10.70;17.50
530;DHT22;251;48.704;9.210;2023-05-18T07:34:30;10.70;17.60
530;DHT22;251;48.704;9.210;2023-05-18T07:36:57;10.80;17.70
530;DHT22;251;48.704;9.210;2023-05-18T07:39:24;11.00;17.60
530;DHT22;251;48.704;9.210;2023-05-18T07:41:55;11.00;16.40
530;DHT22;251;48.704;9.210;2023-05-18T07:44:22;11.40;16.10
530;DHT22;251;48.704;9.210;2023-05-18T07:46:49;11.20;15.60
530;DHT22;251;48.704;9.210;2023-05-18T07:49:16;11.50;16.30
530;DHT22;251;48.704;9.210;2023-05-18T07:51:43;11.80;16.10
530;DHT22;251;48.704;9.210;2023-05-18T07:54:10;11.80;15.70
530;DHT22;251;48.704;9.210;2023-05-18T07:56:37;11.90;16.00
530;DHT22;251;48.704;9.210;2023-05-18T07:59:05;12.00;15.20
530;DHT22;251;48.704;9.210;2023-05-18T08:01:32;12.10;15.70
530;DHT22;251;48.704;9.210;2023-05-18T08:03:59;12.30;14.60
530;DHT22;251;48.704;9.210;2023-05-18T08:06:26;12.40;14.90
530;DHT22;251;48.704;9.210;2023-05-18T08:08:53;12.70;14.20
530;DHT22;251;48.704;9.210;2023-05-18T08:11:24;12.60;14.90
530;DHT22;251;48.704;9.210;2023-05-18T08:13:51;13.00;15.10
530;DHT22;251;48.704;9.210;2023-05-18T08:16:19;13.10;13.90
530;DHT22;251;48.704;9.210;2023-05-18T08:18:46;13.30;13.50
530;DHT22;251;48.704;9.210;2023-05-18T08:21:12;13.70;14.40
530;DHT22;251;48.704;9.210;2023-05-18T08:23:39;13.60;12.40
530;DHT22;251;48.704;9.210;2023-05-18T08:26:06;13.70;11.80
530;DHT22;251;48.704;9.210;2023-05-18T08:28:33;13.90;12.10
530;DHT22;251;48.704;9.210;2023-05-18T08:31:00;13.80;11.70
530;DHT22;251;48.704;9.210;2023-05-18T08:33:28;13.90;11.20
530;DHT22;251;48.704;9.210;2023-05-18T08:35:57;14.20;11.50
530;DHT22;251;48.704;9.210;2023-05-18T08:38:24;14.30;11.40
530;DHT22;251;48.704;9.210;2023-05-18T08:41:01;14.20;9.10
530;DHT22;251;48.704;9.210;2023-05-18T08:43:30;14.30;9.70
530;DHT22;251;48.704;9.210;2023-05-18T08:46:04;14.20;9.90
530;DHT22;251;48.704;9.210;2023-05-18T08:48:35;14.70;10.20
530;DHT22;251;48.704;9.210;2023-05-18T08:51:05;14.90;8.70
530;DHT22;251;48.704;9.210;2023-05-18T08:53:32;14.60;8.40
530;DHT22;251;48.704;9.210;2023-05-18T08:55:59;14.80;8.20
530;DHT22;251;48.704;9.210;2023-05-18T08:58:31;15.00;8.10
530;DHT22;251;48.704;9.210;2023-05-18T09:00:59;15.00;7.30
530;DHT22;251;48.704;9.210;2023-05-18T09:03:28;15.50;6.60
530;DHT22;251;48.704;9.210;2023-05-18T09:05:58;15.40;7.70
530;DHT22;251;48.704;9.210;2023-05-18T09:08:27;15.90;6.80
530;DHT22;251;48.704;9.210;2023-05-18T09:10:56;16.20;4.40
530;DHT22;251;48.704;9.210;2023-05-18T09:13:23;16.60;5.50
530;DHT22;251;48.704;9.210;2023-05-18T09:15:51;16.30;4.50
530;DHT22;251;48.704;9.210;2023-05-18T09:18:18;16.20;2.90
530;DHT22;251;48.704;9.210;2023-05-18T09:20:45;16.60;3.70
530;DHT22;251;48.704;9.210;2023-05-18T09:23:15;16.80;3.10
530;DHT22;251;48.704;9.210;2023-05-18T09:25:43;17.30;3.00
530;DHT22;251;48.704;9.210;2023-05-18T09:28:11;17.60;1.20
530;DHT22;251;48.704;9.210;2023-05-18T09:30:40;17.40;1.30
530;DHT22;251;48.704;9.210;2023-05-18T09:33:15;17.60;1.00
530;DHT22;251;48.704;9.210;2023-05-18T09:35:44;17.70;1.00
530;DHT22;251;48.704;9.210;2023-05-18T09:38:12;17.70;1.00
530;DHT22;251;48.704;9.210;2023-05-18T09:40:44;17.50;1.00
530;DHT22;251;48.704;9.210;2023-05-18T09:43:12;17.50;1.00
530;DHT22;251;48.704;9.210;2023-05-18T09:45:42;17.20;1.00
530;DHT22;251;48.704;9.210;2023-05-18T09:48:09;17.70;1.00
530;DHT22;251;48.704;9.210;2023-05-18T09:50:36;18.00;1.00
530;DHT22;251;48.704;9.210;2023-05-18T09:53:05;18.40;1.00
530;DHT22;251;48.704;9.210;2023-05-18T09:55:35;18.70;1.00
530;DHT22;251;48.704;9.210;2023-05-18T09:58:05;18.90;1.00
530;DHT22;251;48.704;9.210;2023-05-18T10:00:37;19.10;1.00
530;DHT22;251;48.704;9.210;2023-05-18T10:03:16;19.30;1.00
530;DHT22;251;48.704;9.210;2023-05-18T10:05:43;19.50;1.00
530;DHT22;251;48.704;9.210;2023-05-18T10:08:12;20.10;1.00
530;DHT22;251;48.704;9.210;2023-05-18T10:10:41;20.80;1.00
530;DHT22;251;48.704;9.210;2023-05-18T10:13:13;21.20;1.00
530;DHT22;251;48.704;9.210;2023-05-18T10:15:46;21.00;1.00
530;DHT22;251;48.704;9.210;2023-05-18T10:18:18;21.10;1.00
530;DHT22;251;48.704;9.210;2023-05-18T10:20:46;21.10;1.00
530;DHT22;251;48.704;9.210;2023-05-18T10:23:14;21.10;1.00
530;DHT22;251;48.704;9.210;2023-05-18T10:25:44;21.30;1.00
530;DHT22;251;48.704;9.210;2023-05-18T10:28:17;21.70;1.00
530;DHT22;251;48.704;9.210;2023-05-18T10:30:50;21.40;1.00
530;DHT22;251;48.704;9.210;2023-05-18T10:33:17;21.60;1.00
530;DHT22;251;48.704;9.210;2023-05-18T10:35:44;21.80;1.00
530;DHT22;251;48.704;9.210;2023-05-18T10:38:17;21.70;1.00
530;DHT22;251;48.704;9.210;2023-05-18T10:40:46;21.70;1.00
530;DHT22;251;48.704;9.210;2023-05-18T10:43:17;22.10;1.00
530;DHT22;251;48.704;9.210;2023-05-18T10:45:46;22.30;1.00
530;DHT22;251;48.704;9.210;2023-05-18T10:48:14;22.70;1.00
530;DHT22;251;48.704;9.210;2023-05-18T10:50:42;23.10;1.00
530;DHT22;251;48.704;9.210;2023-05-18T10:53:11;23.50;1.00
530;DHT22;251;48.704;9.210;2023-05-18T10:55:38;24.00;1.00
530;DHT22;251;48.704;9.210;2023-05-18T10:58:09;24.20;1.00
530;DHT22;251;48.704;9.210;2023-05-18T11:00:41;24.50;1.00
530;DHT22;251;48.704;9.210;2023-05-18T11:03:10;24.60;1.00
530;DHT22;251;48.704;9.210;2023-05-18T11:05:39;24.70;1.00
530;DHT22;251;48.704;9.210;2023-05-18T11:08:06;24.60;1.00
530;DHT22;251;48.704;9.210;2023-05-18T11:10:35;24.80;1.00
530;DHT22;251;48.704;9.210;2023-05-18T11:13:04;25.00;1.00
530;DHT22;251;48.704;9.210;2023-05-18T11:16:07;24.40;1.00
530;DHT22;251;48.704;9.210;2023-05-18T11:18:43;24.20;1.00
530;DHT22;251;48.704;9.210;2023-05-18T11:21:30;24.40;1.00
530;DHT22;251;48.704;9.210;2023-05-18T11:24:29;25.00;1.00
530;DHT22;251;48.704;9.210;2023-05-18T11:26:57;25.30;1.00
530;DHT22;251;48.704;9.210;2023-05-18T11:29:30;25.30;1.00
530;DHT22;251;48.704;9.210;2023-05-18T11:31:58;25.10;1.00
530;DHT22;251;48.704;9.210;2023-05-18T11:34:36;25.30;1.00
530;DHT22;251;48.704;9.210;2023-05-18T11:37:05;25.90;1.00
530;DHT22;251;48.704;9.210;2023-05-18T11:39:35;25.60;1.00
530;DHT22;251;48.704;9.210;2023-05-18T11:42:05;25.60;1.00
530;DHT22;251;48.704;9.210;2023-05-18T11:44:32;25.90;1.00
530;DHT22;251;48.704;9.210;2023-05-18T11:47:02;26.00;1.00
530;DHT22;251;48.704;9.210;2023-05-18T11:49:31;25.90;1.00
530;DHT22;251;48.704;9.210;2023-05-18T11:52:06;26.00;1.00
530;DHT22;251;48.704;9.210;2023-05-18T11:54:36;26.50;1.00
530;DHT22;251;48.704;9.210;2023-05-18T11:57:03;26.00;1.00
530;DHT22;251;48.704;9.210;2023-05-18T11:59:32;25.10;1.00
530;DHT22;251;48.704;9.210;2023-05-18T12:02:02;24.90;1.00
530;DHT22;251;48.704;9.210;2023-05-18T12:04:29;25.20;1.00
530;DHT22;251;48.704;9.210;2023-05-18T12:06:58;25.60;1.00
530;DHT22;251;48.704;9.210;2023-05-18T12:09:26;26.30;1.00
530;DHT22;251;48.704;9.210;2023-05-18T12:11:55;26.70;1.00
530;DHT22;251;48.704;9.210;2023-05-18T12:14:23;27.30;1.00
530;DHT22;251;48.704;9.210;2023-05-18T12:16:51;27.20;1.00
530;DHT22;251;48.704;9.210;2023-05-18T12:19:20;27.70;1.00
530;DHT22;251;48.704;9.210;2023-05-18T12:21:48;28.20;1.00
530;DHT22;251;48.704;9.210;2023-05-18T12:24:15;28.00;1.00
530;DHT22;251;48.704;9.210;2023-05-18T12:26:41;27.60;1.00
530;DHT22;251;48.704;9.210;2023-05-18T12:29:11;27.00;1.00
530;DHT22;251;48.704;9.210;2023-05-18T12:31:44;26.70;1.00
530;DHT22;251;48.704;9.210;2023-05-18T12:34:11;26.50;1.00
530;DHT22;251;48.704;9.210;2023-05-18T12:36:50;26.70;1.00
530;DHT22;251;48.704;9.210;2023-05-18T12:39:18;26.50;1.00
530;DHT22;251;48.704;9.210;2023-05-18T12:41:45;26.10;1.00
530;DHT22;251;48.704;9.210;2023-05-18T12:44:12;26.00;1.00
530;DHT22;251;48.704;9.210;2023-05-18T12:46:40;26.00;1.00
530;DHT22;251;48.704;9.210;2023-05-18T12:49:07;25.60;1.00
530;DHT22;251;48.704;9.210;2023-05-18T12:51:35;26.00;1.00
530;DHT22;251;48.704;9.210;2023-05-18T12:54:05;25.70;1.00
530;DHT22;251;48.704;9.210;2023-05-18T12:56:51;25.20;1.00
530;DHT22;251;48.704;9.210;2023-05-18T12:59:24;25.70;1.00
530;DHT22;251;48.704;9.210;2023-05-18T13:01:51;25.70;1.00
530;DHT22;251;48.704;9.210;2023-05-18T13:04:18;25.30;1.00
530;DHT22;251;48.704;9.210;2023-05-18T13:06:45;25.10;1.00
530;DHT22;251;48.704;9.210;2023-05-18T13:09:14;25.10;1.00
530;DHT22;251;48.704;9.210;2023-05-18T13:11:46;25.40;1.00
530;DHT22;251;48.704;9.210;2023-05-18T13:14:13;25.40;1.00
530;DHT22;251;48.704;9.210;2023-05-18T13:16:44;25.40;1.00
530;DHT22;251;48.704;9.210;2023-05-18T13:19:15;25.10;1.00
530;DHT22;251;48.704;9.210;2023-05-18T13:21:43;25.00;1.00
530;DHT22;251;48.704;9.210;2023-05-18T13:24:11;25.90;1.00
530;DHT22;251;48.704;9.210;2023-05-18T13:26:39;27.00;1.00
530;DHT22;251;48.704;9.210;2023-05-18T13:29:06;28.40;1.00
530;DHT22;251;48.704;9.210;2023-05-18T13:31:33;28.90;1.00
530;DHT22;251;48.704;9.210;2023-05-18T13:34:00;28.20;1.00
530;DHT22;251;48.704;9.210;2023-05-18T13:36:27;28.40;1.00
530;DHT22;251;48.704;9.210;2023-05-18T13:38:58;29.00;1.00
530;DHT22;251;48.704;9.210;2023-05-18T13:41:25;29.80;1.00
530;DHT22;251;48.704;9.210;2023-05-18T13:43:53;30.40;1.00
530;DHT22;251;48.704;9.210;2023-05-18T13:46:20;29.70;1.00
530;DHT22;251;48.704;9.210;2023-05-18T13:48:47;28.40;1.00
530;DHT22;251;48.704;9.210;2023-05-18T13:51:13;27.20;1.00
530;DHT22;251;48.704;9.210;2023-05-18T13:53:40;25.90;1.00
530;DHT22;251;48.704;9.210;2023-05-18T13:56:07;25.00;1.00
530;DHT22;251;48.704;9.210;2023-05-18T13:58:34;24.80;1.00
530;DHT22;251;48.704;9.210;2023-05-18T14:01:02;25.10;1.00
530;DHT22;251;48.704;9.210;2023-05-18T14:03:32;25.80;1.00
530;DHT22;251;48.704;9.210;2023-05-18T14:06:01;26.90;1.00
530;DHT22;251;48.704;9.210;2023-05-18T14:08:28;28.10;1.00
530;DHT22;251;48.704;9.210;2023-05-18T14:10:54;28.10;1.00
530;DHT22;251;48.704;9.210;2023-05-18T14:13:21;27.40;1.00
530;DHT22;251;48.704;9.210;2023-05-18T14:15:48;26.50;1.00
530;DHT22;251;48.704;9.210;2023-05-18T14:18:16;25.60;1.00
530;DHT22;251;48.704;9.210;2023-05-18T14:20:43;25.50;1.00
530;DHT22;251;48.704;9.210;2023-05-18T14:23:10;25.50;1.00
530;DHT22;251;48.704;9.210;2023-05-18T14:25:37;25.30;1.00
530;DHT22;251;48.704;9.210;2023-05-18T14:28:04;25.40;1.00
530;DHT22;251;48.704;9.210;2023-05-18T14:30:31;25.80;1.00
530;DHT22;251;48.704;9.210;2023-05-18T14:32:57;25.60;1.00
530;DHT22;251;48.704;9.210;2023-05-18T14:35:27;25.70;1.00
530;DHT22;251;48.704;9.210;2023-05-18T14:37:54;25.50;1.00
530;DHT22;251;48.704;9.210;2023-05-18T14:40:20;25.00;1.00
530;DHT22;251;48.704;9.210;2023-05-18T14:42:47;24.20;1.00
530;DHT22;251;48.704;9.210;2023-05-18T14:45:14;23.70;1.00
530;DHT22;251;48.704;9.210;2023-05-18T14:47:41;23.30;1.00
530;DHT22;251;48.704;9.210;2023-05-18T14:50:09;22.80;1.00
530;DHT22;251;48.704;9.210;2023-05-18T14:52:37;22.40;1.00
530;DHT22;251;48.704;9.210;2023-05-18T14:55:04;22.20;1.00
530;DHT22;251;48.704;9.210;2023-05-18T14:57:31;21.80;1.00
530;DHT22;251;48.704;9.210;2023-05-18T14:59:58;21.60;1.00
530;DHT22;251;48.704;9.210;2023-05-18T15:02:25;21.30;1.00
530;DHT22;251;48.704;9.210;2023-05-18T15:04:52;21.20;1.00
530;DHT22;251;48.704;9.210;2023-05-18T15:07:18;21.10;1.00
530;DHT22;251;48.704;9.210;2023-05-18T15:09:47;20.90;1.00
530;DHT22;251;48.704;9.210;2023-05-18T15:12:13;20.80;1.00
530;DHT22;251;48.704;9.210;2023-05-18T15:14:41;20.50;1.00
530;DHT22;251;48.704;9.210;2023-05-18T15:17:08;20.40;1.00
530;DHT22;251;48.704;9.210;2023-05-18T15:19:35;20.20;1.00
530;DHT22;251;48.704;9.210;2023-05-18T15:22:01;20.00;1.00
530;DHT22;251;48.704;9.210;2023-05-18T15:24:28;19.90;1.00
530;DHT22;251;48.704;9.210;2023-05-18T15:26:56;19.70;1.00
530;DHT22;251;48.704;9.210;2023-05-18T15:29:23;19.60;1.00
530;DHT22;251;48.704;9.210;2023-05-18T15:31:51;19.50;1.00
530;DHT22;251;48.704;9.210;2023-05-18T15:34:19;19.40;1.00
530;DHT22;251;48.704;9.210;2023-05-18T15:36:46;19.20;1.00
530;DHT22;251;48.704;9.210;2023-05-18T15:39:13;19.10;1.00
530;DHT22;251;48.704;9.210;2023-05-18T15:41:40;19.00;1.00
530;DHT22;251;48.704;9.210;2023-05-18T15:44:08;18.80;1.00
530;DHT22;251;48.704;9.210;2023-05-18T15:46:35;18.70;1.00
530;DHT22;251;48.704;9.210;2023-05-18T15:49:02;18.60;1.00
530;DHT22;251;48.704;9.210;2023-05-18T15:51:29;18.50;1.00
530;DHT22;251;48.704;9.210;2023-05-18T15:53:56;18.40;1.00
530;DHT22;251;48.704;9.210;2023-05-18T15:56:23;18.40;1.00
530;DHT22;251;48.704;9.210;2023-05-18T15:58:50;18.40;1.00
530;DHT22;251;48.704;9.210;2023-05-18T16:01:18;18.40;1.00
530;DHT22;251;48.704;9.210;2023-05-18T16:03:45;18.30;1.00
530;DHT22;251;48.704;9.210;2023-05-18T16:06:11;18.20;1.00
530;DHT22;251;48.704;9.210;2023-05-18T16:08:38;18.10;1.00
530;DHT22;251;48.704;9.210;2023-05-18T16:11:05;18.20;1.00
530;DHT22;251;48.704;9.210;2023-05-18T16:13:32;18.10;1.00
530;DHT22;251;48.704;9.210;2023-05-18T16:15:59;18.10;1.00
530;DHT22;251;48.704;9.210;2023-05-18T16:18:27;18.20;1.00
530;DHT22;251;48.704;9.210;2023-05-18T16:20:54;18.30;1.00
530;DHT22;251;48.704;9.210;2023-05-18T16:23:20;18.10;1.00
530;DHT22;251;48.704;9.210;2023-05-18T16:25:47;18.00;1.00
530;DHT22;251;48.704;9.210;2023-05-18T16:28:14;17.90;1.00
530;DHT22;251;48.704;9.210;2023-05-18T16:30:41;17.70;1.00
530;DHT22;251;48.704;9.210;2023-05-18T16:33:07;17.80;1.00
530;DHT22;251;48.704;9.210;2023-05-18T16:35:36;17.80;1.00
530;DHT22;251;48.704;9.210;2023-05-18T16:38:02;17.60;1.00
530;DHT22;251;48.704;9.210;2023-05-18T16:40:29;17.40;1.00
530;DHT22;251;48.704;9.210;2023-05-18T16:42:56;17.50;1.00
530;DHT22;251;48.704;9.210;2023-05-18T16:45:23;17.40;1.00
530;DHT22;251;48.704;9.210;2023-05-18T16:47:50;17.50;1.00
530;DHT22;251;48.704;9.210;2023-05-18T16:50:16;17.40;1.00
530;DHT22;251;48.704;9.210;2023-05-18T16:52:44;17.30;1.00
530;DHT22;251;48.704;9.210;2023-05-18T16:55:11;17.60;1.00
530;DHT22;251;48.704;9.210;2023-05-18T16:57:38;17.40;1.30
530;DHT22;251;48.704;9.210;2023-05-18T17:00:08;17.20;1.60